createdAt,value
2019-03-16T00:03:48.546Z,99058.80
2019-03-16T00:08:50.133Z,99062.06
2019-03-16T00:13:51.808Z,99046.05
2019-03-16T00:18:53.400Z,99049.49
2019-03-16T00:23:54.983Z,99064.19
2019-03-16T00:28:56.587Z,99065.96
2019-03-16T00:33:58.268Z,99063.70
2019-03-16T00:38:59.969Z,99081.33
2019-03-16T00:44:01.694Z,99087.84
2019-03-16T00:49:03.344Z,99078.37
2019-03-16T00:54:05.060Z,99080.81
2019-03-16T00:59:06.939Z,99079.66
2019-03-16T01:04:08.508Z,99081.11
2019-03-16T01:09:10.222Z,99084.25
2019-03-16T01:14:11.945Z,99111.17
2019-03-16T01:19:13.514Z,99105.95
2019-03-16T01:24:15.209Z,99115.92
2019-03-16T01:29:16.803Z,99100.25
2019-03-16T01:34:18.403Z,99088.30
2019-03-16T01:39:20.028Z,99100.23
2019-03-16T01:44:21.773Z,99109.22
2019-03-16T01:49:23.313Z,99132.20
2019-03-16T01:54:24.877Z,99136.97
2019-03-16T01:59:26.505Z,99137.60
2019-03-16T02:04:28.082Z,99138.91
2019-03-16T02:09:29.636Z,99157.36
2019-03-16T02:14:31.206Z,99141.03
2019-03-16T02:19:35.821Z,99157.20
2019-03-16T02:24:36.268Z,99161.13
2019-03-16T02:29:37.946Z,99169.29
2019-03-16T02:34:39.519Z,99175.66
2019-03-16T02:39:41.106Z,99176.45
2019-03-16T02:44:42.690Z,99179.90
2019-03-16T02:49:44.277Z,99193.13
2019-03-16T02:54:46.048Z,99206.05
2019-03-16T02:59:47.642Z,99214.69
2019-03-16T03:04:49.370Z,99219.94
2019-03-16T03:09:51.022Z,99213.07
2019-03-16T03:14:52.742Z,99221.71
2019-03-16T03:19:54.471Z,99231.53
2019-03-16T03:24:56.097Z,99231.83
2019-03-16T03:29:57.922Z,99234.94
2019-03-16T03:34:59.560Z,99238.53
2019-03-16T03:40:01.184Z,99249.15
2019-03-16T03:45:03.523Z,99246.67
2019-03-16T03:50:05.678Z,99266.77
2019-03-16T03:55:07.394Z,99257.09
2019-03-16T04:00:09.684Z,99260.02
2019-03-16T04:05:11.536Z,99263.44
2019-03-16T04:10:13.445Z,99273.52
2019-03-16T04:15:15.162Z,99283.30
2019-03-16T04:20:16.898Z,99298.29
2019-03-16T04:25:18.583Z,99303.34
2019-03-16T04:30:20.187Z,99302.00
2019-03-16T04:35:21.825Z,99309.03
2019-03-16T04:40:23.425Z,99313.92
2019-03-16T04:45:25.041Z,99338.72
2019-03-16T04:50:26.650Z,99332.03
2019-03-16T04:55:28.310Z,99335.48
2019-03-16T05:00:29.865Z,99347.36
2019-03-16T05:05:31.554Z,99332.53
2019-03-16T05:10:33.136Z,99344.95
2019-03-16T05:15:34.846Z,99349.17
2019-03-16T05:20:36.429Z,99351.15
2019-03-16T05:25:38.111Z,99364.75
2019-03-16T05:30:39.742Z,99370.94
2019-03-16T05:35:41.426Z,99379.11
2019-03-16T05:40:42.998Z,99379.58
2019-03-16T05:45:44.627Z,99382.48
2019-03-16T05:50:46.217Z,99393.61
2019-03-16T05:55:47.812Z,99395.25
2019-03-16T06:00:49.406Z,99398.99
2019-03-16T06:05:51.035Z,99418.08
2019-03-16T06:10:52.893Z,99409.77
2019-03-16T06:15:54.501Z,99418.91
2019-03-16T06:20:56.216Z,99419.05
2019-03-16T06:25:57.842Z,99417.94
2019-03-16T06:30:59.458Z,99431.17
2019-03-16T06:36:01.267Z,99446.21
2019-03-16T06:41:02.957Z,99453.41
2019-03-16T06:46:04.716Z,99466.18
2019-03-16T06:51:06.296Z,99458.52
2019-03-16T06:56:07.894Z,99471.23
2019-03-16T07:01:09.474Z,99467.16
2019-03-16T07:06:11.198Z,99474.07
2019-03-16T07:11:13.310Z,99482.08
2019-03-16T07:16:14.932Z,99475.59
2019-03-16T07:21:16.490Z,99474.33
2019-03-16T07:26:18.087Z,99476.48
2019-03-16T07:31:19.698Z,99478.80
2019-03-16T07:36:21.290Z,99476.35
2019-03-16T07:41:23.595Z,99480.81
2019-03-16T07:46:25.184Z,99483.94
2019-03-16T07:51:26.871Z,99492.14
2019-03-16T07:56:28.595Z,99492.78
2019-03-16T08:01:30.209Z,99499.53
2019-03-16T08:06:33.392Z,99502.98
2019-03-16T08:11:38.529Z,99492.73
2019-03-16T08:16:40.129Z,99499.30
2019-03-16T08:21:41.687Z,99507.95
2019-03-16T08:26:43.230Z,99519.34
2019-03-16T08:31:44.823Z,99528.87
2019-03-16T08:36:46.430Z,99528.66
2019-03-16T08:41:48.102Z,99525.53
2019-03-16T08:46:49.793Z,99542.81
2019-03-16T08:51:51.470Z,99554.69
2019-03-16T08:56:53.117Z,99565.93
2019-03-16T09:01:54.721Z,99569.93
2019-03-16T09:06:56.362Z,99579.69
2019-03-16T09:11:58.373Z,99592.02
2019-03-16T09:17:00.067Z,99584.63
2019-03-16T09:22:01.610Z,99587.34
2019-03-16T09:27:03.321Z,99594.95
2019-03-16T09:32:04.885Z,99598.29
2019-03-16T09:37:06.490Z,99587.97
2019-03-16T09:42:08.170Z,99588.03
2019-03-16T09:47:09.896Z,99582.28
2019-03-16T09:52:11.578Z,99583.77
2019-03-16T09:57:13.228Z,99579.17
2019-03-16T10:02:15.991Z,99560.09
2019-03-16T10:07:17.657Z,99576.04
2019-03-16T10:12:19.311Z,99569.64
2019-03-16T10:17:21.064Z,99563.80
2019-03-16T10:22:22.688Z,99568.67
2019-03-16T10:27:24.269Z,99564.73
2019-03-16T10:32:25.826Z,99555.94
2019-03-16T10:37:27.476Z,99545.57
2019-03-16T10:42:29.073Z,99545.63
2019-03-16T10:47:30.730Z,99535.41
2019-03-16T10:52:32.329Z,99531.66
2019-03-16T10:57:33.981Z,99530.92
2019-03-16T11:02:35.720Z,99543.02
2019-03-16T11:07:37.283Z,99536.44
2019-03-16T11:12:38.852Z,99527.81
2019-03-16T11:17:40.420Z,99516.55
2019-03-16T11:22:41.949Z,99505.58
2019-03-16T11:27:43.751Z,99496.99
2019-03-16T11:32:45.300Z,99489.20
2019-03-16T11:37:46.875Z,99472.13
2019-03-16T11:42:48.448Z,99467.28
2019-03-16T11:47:50.017Z,99452.45
2019-03-16T11:52:52.037Z,99447.92
2019-03-16T11:57:53.636Z,99436.33
2019-03-16T12:02:55.260Z,99425.20
2019-03-16T12:07:57.006Z,99415.38
2019-03-16T12:12:58.581Z,99402.95
2019-03-16T12:18:00.131Z,99382.15
2019-03-16T12:23:01.698Z,99372.20
2019-03-16T12:28:03.405Z,99358.16
2019-03-16T12:33:05.153Z,99344.95
2019-03-16T12:38:06.762Z,99337.52
2019-03-16T12:43:08.445Z,99306.72
2019-03-16T12:48:10.121Z,99298.91
2019-03-16T12:53:11.693Z,99295.83
2019-03-16T12:58:13.279Z,99286.02
2019-03-16T13:03:15.033Z,99282.73
2019-03-16T13:08:16.656Z,99270.33
2019-03-16T13:13:18.246Z,99256.74
2019-03-16T13:18:19.818Z,99248.28
2019-03-16T13:23:21.385Z,99236.19
2019-03-16T13:28:22.987Z,99226.55
2019-03-16T13:33:24.520Z,99219.50
2019-03-16T13:38:26.194Z,99219.50
2019-03-16T13:43:27.846Z,99209.04
2019-03-16T13:48:29.419Z,99206.77
2019-03-16T13:53:32.687Z,99196.45
2019-03-16T13:58:34.550Z,99203.00
2019-03-16T14:03:36.147Z,99193.66
2019-03-16T14:08:38.087Z,99193.81
2019-03-16T14:13:39.694Z,99183.86
2019-03-16T14:18:41.469Z,99180.88
2019-03-16T14:23:43.148Z,99174.52
2019-03-16T14:28:44.723Z,99174.66
2019-03-16T14:33:46.365Z,99167.61
2019-03-16T14:38:47.945Z,99157.64
2019-03-16T14:43:49.522Z,99149.28
2019-03-16T14:48:51.138Z,99143.35
2019-03-16T14:53:53.203Z,99141.85
2019-03-16T14:58:54.870Z,99149.13
2019-03-16T15:03:56.482Z,99139.61
2019-03-16T15:08:58.045Z,99132.80
2019-03-16T15:13:59.732Z,99135.05
2019-03-16T15:19:01.303Z,99125.47
2019-03-16T15:24:03.085Z,99132.13
2019-03-16T15:29:04.825Z,99136.50
2019-03-16T15:34:06.393Z,99123.98
2019-03-16T15:39:07.974Z,99137.05
2019-03-16T15:44:09.561Z,99132.91
2019-03-16T15:49:11.117Z,99129.30
2019-03-16T15:54:12.678Z,99117.86
2019-03-16T15:59:14.246Z,99109.08
2019-03-16T16:04:15.800Z,99119.22
2019-03-16T16:09:17.480Z,99132.86
2019-03-16T16:14:19.083Z,99132.02
2019-03-16T16:19:21.948Z,99147.10
2019-03-16T16:24:23.753Z,99142.33
2019-03-16T16:29:25.332Z,99139.70
2019-03-16T16:34:26.976Z,99139.25
2019-03-16T16:39:28.691Z,99127.61
2019-03-16T16:44:30.313Z,99125.98
2019-03-16T16:49:31.893Z,99137.46
2019-03-16T16:54:33.690Z,99119.89
2019-03-16T16:59:35.240Z,99101.55
2019-03-16T17:04:36.953Z,99115.39
2019-03-16T17:09:38.640Z,99104.42
2019-03-16T17:14:40.295Z,99115.45
2019-03-16T17:19:41.873Z,99119.56
2019-03-16T17:24:43.565Z,99115.13
2019-03-16T17:29:45.191Z,99119.38
2019-03-16T17:34:46.759Z,99114.48
2019-03-16T17:39:48.469Z,99124.95
2019-03-16T17:44:51.182Z,99117.24
2019-03-16T17:49:52.936Z,99119.81
2019-03-16T17:54:54.487Z,99120.33
2019-03-16T17:59:56.041Z,99136.70
2019-03-16T18:04:57.606Z,99137.48
2019-03-16T18:09:59.136Z,99138.80
2019-03-16T18:15:00.722Z,99126.16
2019-03-16T18:20:03.068Z,99133.23
2019-03-16T18:25:05.653Z,99139.27
2019-03-16T18:30:09.296Z,99145.84
2019-03-16T18:35:10.866Z,99152.10
2019-03-16T18:40:12.546Z,99157.83
2019-03-16T18:45:14.692Z,99158.50
2019-03-16T18:50:16.369Z,99161.44
2019-03-16T18:55:18.369Z,99142.59
2019-03-16T19:00:20.015Z,99158.66
2019-03-16T19:05:21.594Z,99156.04
2019-03-16T19:10:23.156Z,99155.87
2019-03-16T19:15:24.732Z,99155.07
2019-03-16T19:20:26.301Z,99149.98
2019-03-16T19:25:27.832Z,99144.73
2019-03-16T19:30:29.496Z,99156.22
2019-03-16T19:35:31.056Z,99150.83
2019-03-16T19:40:32.606Z,99157.91
2019-03-16T19:45:34.223Z,99132.68
2019-03-16T19:50:35.793Z,99127.78
2019-03-16T19:55:38.150Z,99132.22
2019-03-16T20:00:39.707Z,99130.91
2019-03-16T20:05:41.271Z,99136.95
2019-03-16T20:10:42.848Z,99134.34
2019-03-16T20:15:44.516Z,99135.78
2019-03-16T20:20:46.088Z,99135.95
2019-03-16T20:25:47.666Z,99131.34
2019-03-16T20:30:49.300Z,99120.34
2019-03-16T20:35:50.921Z,99124.26
2019-03-16T20:40:52.507Z,99127.73
2019-03-16T20:45:54.066Z,99133.27
2019-03-16T20:50:55.622Z,99117.24
2019-03-16T20:55:57.157Z,99111.03
2019-03-16T21:00:58.758Z,99108.75
2019-03-16T21:06:00.458Z,99114.34
2019-03-16T21:11:02.156Z,99108.45
2019-03-16T21:16:03.947Z,99105.70
2019-03-16T21:21:05.580Z,99101.25
2019-03-16T21:26:07.139Z,99097.98
2019-03-16T21:31:08.803Z,99097.38
2019-03-16T21:36:10.347Z,99102.30
2019-03-16T21:41:12.081Z,99107.03
2019-03-16T21:46:13.704Z,99103.44
2019-03-16T21:51:15.296Z,99103.44
2019-03-16T21:56:16.925Z,99103.30
2019-03-16T22:01:18.525Z,99101.19
2019-03-16T22:06:20.143Z,99096.94
2019-03-16T22:11:21.800Z,99097.41
2019-03-16T22:16:23.543Z,99093.98
2019-03-16T22:21:25.156Z,99100.55
2019-03-16T22:26:26.872Z,99102.20
2019-03-16T22:31:28.451Z,99102.03
2019-03-16T22:36:30.079Z,99098.94
2019-03-16T22:41:31.651Z,99102.03
2019-03-16T22:46:33.378Z,99104.04
2019-03-16T22:51:35.011Z,99104.98
2019-03-16T22:56:36.643Z,99089.75
2019-03-16T23:01:38.303Z,99082.69
2019-03-16T23:06:39.882Z,99086.30
2019-03-16T23:11:41.482Z,99076.33
2019-03-16T23:16:43.270Z,99069.13
2019-03-16T23:21:44.931Z,99069.13
2019-03-16T23:26:46.491Z,99053.90
2019-03-16T23:31:48.083Z,99057.84
2019-03-16T23:36:49.660Z,99051.76
2019-03-16T23:41:51.274Z,99049.97
2019-03-16T23:46:52.900Z,99041.45
2019-03-16T23:51:54.514Z,99049.98
2019-03-16T23:56:56.256Z,99036.56
